sensor_id;sensor_type;location;lat;lon;timestamp;temperature;humidity
4505;DHT22;2265;48.794;9.520;2022-12-31T00:00:29;14.00;98.00
4505;DHT22;2265;48.794;9.520;2022-12-31T00:02:57;14.10;98.00
4505;DHT22;2265;48.794;9.520;2022-12-31T00:05:28;14.10;98.00
4505;DHT22;2265;48.794;9.520;2022-12-31T00:07:55;14.00;98.00
4505;DHT22;2265;48.794;9.520;2022-12-31T00:10:23;14.10;98.00
4505;DHT22;2265;48.794;9.520;2022-12-31T00:12:51;14.10;98.00
4505;DHT22;2265;48.794;9.520;2022-12-31T00:15:19;14.10;98.00
4505;DHT22;2265;48.794;9.520;2022-12-31T00:17:47;14.20;98.00
4505;DHT22;2265;48.794;9.520;2022-12-31T00:20:14;14.10;98.00
4505;DHT22;2265;48.794;9.520;2022-12-31T00:22:43;14.20;98.00
4505;DHT22;2265;48.794;9.520;2022-12-31T00:25:13;14.30;98.00
4505;DHT22;2265;48.794;9.520;2022-12-31T00:27:41;14.20;98.00
4505;DHT22;2265;48.794;9.520;2022-12-31T00:30:09;14.30;98.00
4505;DHT22;2265;48.794;9.520;2022-12-31T00:32:36;14.30;98.00
4505;DHT22;2265;48.794;9.520;2022-12-31T00:35:05;14.30;98.00
4505;DHT22;2265;48.794;9.520;2022-12-31T00:37:32;14.40;98.00
4505;DHT22;2265;48.794;9.520;2022-12-31T00:40:01;14.40;98.00
4505;DHT22;2265;48.794;9.520;2022-12-31T00:42:32;14.40;98.00
4505;DHT22;2265;48.794;9.520;2022-12-31T00:44:59;14.50;98.00
4505;DHT22;2265;48.794;9.520;2022-12-31T00:47:26;14.50;98.00
4505;DHT22;2265;48.794;9.520;2022-12-31T00:49:53;14.60;98.00
4505;DHT22;2265;48.794;9.520;2022-12-31T00:52:20;14.60;98.00
4505;DHT22;2265;48.794;9.520;2022-12-31T00:54:47;14.70;98.00
4505;DHT22;2265;48.794;9.520;2022-12-31T00:57:16;14.70;98.00
4505;DHT22;2265;48.794;9.520;2022-12-31T00:59:43;14.70;98.00
4505;DHT22;2265;48.794;9.520;2022-12-31T01:02:10;14.70;98.00
4505;DHT22;2265;48.794;9.520;2022-12-31T01:04:37;14.70;98.00
4505;DHT22;2265;48.794;9.520;2022-12-31T01:07:04;14.80;98.00
4505;DHT22;2265;48.794;9.520;2022-12-31T01:09:31;14.80;98.00
4505;DHT22;2265;48.794;9.520;2022-12-31T01:11:58;14.70;98.00
4505;DHT22;2265;48.794;9.520;2022-12-31T01:14:27;14.70;98.00
4505;DHT22;2265;48.794;9.520;2022-12-31T01:16:54;14.80;98.00
4505;DHT22;2265;48.794;9.520;2022-12-31T01:19:23;14.80;98.00
4505;DHT22;2265;48.794;9.520;2022-12-31T01:21:52;14.90;98.00
4505;DHT22;2265;48.794;9.520;2022-12-31T01:24:19;14.90;98.00
4505;DHT22;2265;48.794;9.520;2022-12-31T01:26:46;14.80;98.00
4505;DHT22;2265;48.794;9.520;2022-12-31T01:29:13;14.80;98.00
4505;DHT22;2265;48.794;9.520;2022-12-31T01:31:43;14.80;98.00
4505;DHT22;2265;48.794;9.520;2022-12-31T01:34:10;14.90;98.00
4505;DHT22;2265;48.794;9.520;2022-12-31T01:36:37;14.90;98.00
4505;DHT22;2265;48.794;9.520;2022-12-31T01:39:07;14.90;98.00
4505;DHT22;2265;48.794;9.520;2022-12-31T01:41:35;14.80;98.00
4505;DHT22;2265;48.794;9.520;2022-12-31T01:47:14;14.70;98.00
4505;DHT22;2265;48.794;9.520;2022-12-31T01:49:43;14.70;98.00
4505;DHT22;2265;48.794;9.520;2022-12-31T01:52:15;14.70;98.00
4505;DHT22;2265;48.794;9.520;2022-12-31T01:54:47;14.70;98.00
4505;DHT22;2265;48.794;9.520;2022-12-31T01:57:23;14.60;98.00
4505;DHT22;2265;48.794;9.520;2022-12-31T01:59:51;14.60;98.00
4505;DHT22;2265;48.794;9.520;2022-12-31T02:02:20;14.60;98.00
4505;DHT22;2265;48.794;9.520;2022-12-31T02:04:48;14.50;98.00
4505;DHT22;2265;48.794;9.520;2022-12-31T02:07:19;14.50;98.00
4505;DHT22;2265;48.794;9.520;2022-12-31T02:09:46;14.50;98.00
4505;DHT22;2265;48.794;9.520;2022-12-31T02:12:13;14.50;98.00
4505;DHT22;2265;48.794;9.520;2022-12-31T02:14:43;14.50;98.00
4505;DHT22;2265;48.794;9.520;2022-12-31T02:17:18;14.50;98.00
4505;DHT22;2265;48.794;9.520;2022-12-31T02:26:08;14.50;98.00
4505;DHT22;2265;48.794;9.520;2022-12-31T02:31:37;14.40;98.00
4505;DHT22;2265;48.794;9.520;2022-12-31T02:34:09;14.40;98.00
4505;DHT22;2265;48.794;9.520;2022-12-31T02:36:41;14.40;98.00
4505;DHT22;2265;48.794;9.520;2022-12-31T02:39:11;14.40;98.00
4505;DHT22;2265;48.794;9.520;2022-12-31T02:41:42;14.40;98.00
4505;DHT22;2265;48.794;9.520;2022-12-31T02:44:32;14.40;98.00
4505;DHT22;2265;48.794;9.520;2022-12-31T02:47:19;14.40;98.00
4505;DHT22;2265;48.794;9.520;2022-12-31T02:50:01;14.40;98.00
4505;DHT22;2265;48.794;9.520;2022-12-31T02:52:38;14.50;98.00
4505;DHT22;2265;48.794;9.520;2022-12-31T02:55:13;14.50;98.00
4505;DHT22;2265;48.794;9.520;2022-12-31T02:57:48;14.60;98.00
4505;DHT22;2265;48.794;9.520;2022-12-31T03:00:19;14.60;98.00
4505;DHT22;2265;48.794;9.520;2022-12-31T03:03:06;14.70;98.00
4505;DHT22;2265;48.794;9.520;2022-12-31T03:05:37;14.80;98.00
4505;DHT22;2265;48.794;9.520;2022-12-31T03:08:05;14.80;98.00
4505;DHT22;2265;48.794;9.520;2022-12-31T03:10:32;14.90;98.00
4505;DHT22;2265;48.794;9.520;2022-12-31T03:12:59;14.90;98.00
4505;DHT22;2265;48.794;9.520;2022-12-31T03:15:26;14.90;98.00
4505;DHT22;2265;48.794;9.520;2022-12-31T03:17:57;14.90;98.00
4505;DHT22;2265;48.794;9.520;2022-12-31T03:20:28;14.90;98.00
4505;DHT22;2265;48.794;9.520;2022-12-31T03:23:17;14.90;98.00
4505;DHT22;2265;48.794;9.520;2022-12-31T03:25:44;14.90;98.00
4505;DHT22;2265;48.794;9.520;2022-12-31T03:28:12;14.90;98.00
4505;DHT22;2265;48.794;9.520;2022-12-31T03:30:45;15.00;98.00
4505;DHT22;2265;48.794;9.520;2022-12-31T03:33:12;15.00;98.00
4505;DHT22;2265;48.794;9.520;2022-12-31T03:35:48;14.90;98.00
4505;DHT22;2265;48.794;9.520;2022-12-31T03:38:17;14.90;98.00
4505;DHT22;2265;48.794;9.520;2022-12-31T03:40:46;14.90;98.00
4505;DHT22;2265;48.794;9.520;2022-12-31T03:43:13;15.00;98.00
4505;DHT22;2265;48.794;9.520;2022-12-31T03:45:41;15.00;98.00
4505;DHT22;2265;48.794;9.520;2022-12-31T03:48:09;15.00;98.00
4505;DHT22;2265;48.794;9.520;2022-12-31T03:50:36;15.00;98.00
4505;DHT22;2265;48.794;9.520;2022-12-31T03:53:05;15.00;98.00
4505;DHT22;2265;48.794;9.520;2022-12-31T03:55:32;15.10;98.00
4505;DHT22;2265;48.794;9.520;2022-12-31T03:58:00;15.10;98.00
4505;DHT22;2265;48.794;9.520;2022-12-31T04:00:34;15.10;98.00
4505;DHT22;2265;48.794;9.520;2022-12-31T04:03:01;15.10;98.00
4505;DHT22;2265;48.794;9.520;2022-12-31T04:05:28;15.10;98.00
4505;DHT22;2265;48.794;9.520;2022-12-31T04:07:55;15.20;98.00
4505;DHT22;2265;48.794;9.520;2022-12-31T04:10:25;15.20;98.00
4505;DHT22;2265;48.794;9.520;2022-12-31T04:12:52;15.20;98.00
4505;DHT22;2265;48.794;9.520;2022-12-31T04:15:20;15.30;98.00
4505;DHT22;2265;48.794;9.520;2022-12-31T04:17:47;15.30;98.00
4505;DHT22;2265;48.794;9.520;2022-12-31T04:20:15;15.30;98.00
4505;DHT22;2265;48.794;9.520;2022-12-31T04:22:42;15.40;98.00
4505;DHT22;2265;48.794;9.520;2022-12-31T04:25:09;15.40;98.00
4505;DHT22;2265;48.794;9.520;2022-12-31T04:27:39;15.40;98.00
4505;DHT22;2265;48.794;9.520;2022-12-31T04:30:09;15.50;98.00
4505;DHT22;2265;48.794;9.520;2022-12-31T04:32:36;15.50;98.00
4505;DHT22;2265;48.794;9.520;2022-12-31T04:35:04;15.50;98.00
4505;DHT22;2265;48.794;9.520;2022-12-31T04:37:31;15.60;98.00
4505;DHT22;2265;48.794;9.520;2022-12-31T04:39:59;15.60;98.00
4505;DHT22;2265;48.794;9.520;2022-12-31T04:42:26;15.60;98.00
4505;DHT22;2265;48.794;9.520;2022-12-31T04:44:54;15.60;98.00
4505;DHT22;2265;48.794;9.520;2022-12-31T04:47:21;15.60;98.00
4505;DHT22;2265;48.794;9.520;2022-12-31T04:49:49;15.60;98.00
4505;DHT22;2265;48.794;9.520;2022-12-31T04:52:16;15.60;98.00
4505;DHT22;2265;48.794;9.520;2022-12-31T04:54:43;15.70;98.00
4505;DHT22;2265;48.794;9.520;2022-12-31T04:57:10;15.70;98.00
4505;DHT22;2265;48.794;9.520;2022-12-31T04:59:37;15.70;98.00
4505;DHT22;2265;48.794;9.520;2022-12-31T05:02:06;15.70;98.00
4505;DHT22;2265;48.794;9.520;2022-12-31T05:04:33;15.70;98.00
4505;DHT22;2265;48.794;9.520;2022-12-31T05:07:00;15.70;98.00
4505;DHT22;2265;48.794;9.520;2022-12-31T05:09:27;15.60;98.00
4505;DHT22;2265;48.794;9.520;2022-12-31T05:11:56;15.70;98.00
4505;DHT22;2265;48.794;9.520;2022-12-31T05:14:23;15.70;98.00
4505;DHT22;2265;48.794;9.520;2022-12-31T05:16:51;15.80;98.00
4505;DHT22;2265;48.794;9.520;2022-12-31T05:19:20;15.80;98.00
4505;DHT22;2265;48.794;9.520;2022-12-31T05:21:47;15.80;98.00
4505;DHT22;2265;48.794;9.520;2022-12-31T05:24:34;15.80;98.00
4505;DHT22;2265;48.794;9.520;2022-12-31T05:27:02;15.80;98.00
4505;DHT22;2265;48.794;9.520;2022-12-31T05:29:29;15.80;98.00
4505;DHT22;2265;48.794;9.520;2022-12-31T05:31:56;15.80;98.00
4505;DHT22;2265;48.794;9.520;2022-12-31T05:34:24;15.70;98.00
4505;DHT22;2265;48.794;9.520;2022-12-31T05:36:51;15.80;98.00
4505;DHT22;2265;48.794;9.520;2022-12-31T05:39:18;15.80;98.00
4505;DHT22;2265;48.794;9.520;2022-12-31T05:41:45;15.70;98.00
4505;DHT22;2265;48.794;9.520;2022-12-31T05:44:13;15.70;98.00
4505;DHT22;2265;48.794;9.520;2022-12-31T05:46:40;15.70;98.00
4505;DHT22;2265;48.794;9.520;2022-12-31T05:49:07;15.80;98.00
4505;DHT22;2265;48.794;9.520;2022-12-31T05:51:36;15.80;98.00
4505;DHT22;2265;48.794;9.520;2022-12-31T05:54:04;15.80;98.00
4505;DHT22;2265;48.794;9.520;2022-12-31T05:56:31;15.80;98.00
4505;DHT22;2265;48.794;9.520;2022-12-31T05:58:59;15.70;98.00
4505;DHT22;2265;48.794;9.520;2022-12-31T06:01:26;15.80;98.00
4505;DHT22;2265;48.794;9.520;2022-12-31T06:03:53;15.80;98.00
4505;DHT22;2265;48.794;9.520;2022-12-31T06:06:20;15.80;98.00
4505;DHT22;2265;48.794;9.520;2022-12-31T06:08:50;15.70;98.00
4505;DHT22;2265;48.794;9.520;2022-12-31T06:11:17;15.70;98.00
4505;DHT22;2265;48.794;9.520;2022-12-31T06:13:44;15.70;98.00
4505;DHT22;2265;48.794;9.520;2022-12-31T06:16:11;15.70;98.00
4505;DHT22;2265;48.794;9.520;2022-12-31T06:18:38;15.80;98.00
4505;DHT22;2265;48.794;9.520;2022-12-31T06:21:06;15.80;98.00
4505;DHT22;2265;48.794;9.520;2022-12-31T06:23:33;15.80;98.00
4505;DHT22;2265;48.794;9.520;2022-12-31T06:26:02;15.90;98.00
4505;DHT22;2265;48.794;9.520;2022-12-31T06:28:29;15.90;98.00
4505;DHT22;2265;48.794;9.520;2022-12-31T06:30:58;15.90;98.00
4505;DHT22;2265;48.794;9.520;2022-12-31T06:33:26;15.90;98.00
4505;DHT22;2265;48.794;9.520;2022-12-31T06:35:55;15.90;98.00
4505;DHT22;2265;48.794;9.520;2022-12-31T06:38:22;15.90;98.00
4505;DHT22;2265;48.794;9.520;2022-12-31T06:40:49;15.90;98.00
4505;DHT22;2265;48.794;9.520;2022-12-31T06:43:19;15.90;98.00
4505;DHT22;2265;48.794;9.520;2022-12-31T06:45:48;15.80;98.00
4505;DHT22;2265;48.794;9.520;2022-12-31T06:48:15;15.80;98.00
4505;DHT22;2265;48.794;9.520;2022-12-31T06:50:43;15.70;98.00
4505;DHT22;2265;48.794;9.520;2022-12-31T06:53:10;15.70;98.00
4505;DHT22;2265;48.794;9.520;2022-12-31T06:55:37;15.70;98.00
4505;DHT22;2265;48.794;9.520;2022-12-31T06:58:07;15.80;98.00
4505;DHT22;2265;48.794;9.520;2022-12-31T07:00:36;15.70;98.00
4505;DHT22;2265;48.794;9.520;2022-12-31T07:03:21;15.70;98.00
4505;DHT22;2265;48.794;9.520;2022-12-31T07:05:57;15.70;98.00
4505;DHT22;2265;48.794;9.520;2022-12-31T07:08:36;15.70;98.00
4505;DHT22;2265;48.794;9.520;2022-12-31T07:11:14;15.60;98.00
4505;DHT22;2265;48.794;9.520;2022-12-31T07:13:58;15.60;98.00
4505;DHT22;2265;48.794;9.520;2022-12-31T07:16:41;15.60;98.00
4505;DHT22;2265;48.794;9.520;2022-12-31T07:19:21;15.60;98.00
4505;DHT22;2265;48.794;9.520;2022-12-31T07:21:52;15.60;98.00
4505;DHT22;2265;48.794;9.520;2022-12-31T07:24:20;15.70;98.00
4505;DHT22;2265;48.794;9.520;2022-12-31T07:27:00;15.60;98.00
4505;DHT22;2265;48.794;9.520;2022-12-31T07:29:41;15.70;98.00
4505;DHT22;2265;48.794;9.520;2022-12-31T07:32:23;15.70;98.00
4505;DHT22;2265;48.794;9.520;2022-12-31T07:34:59;15.70;98.00
4505;DHT22;2265;48.794;9.520;2022-12-31T07:37:33;15.70;98.00
4505;DHT22;2265;48.794;9.520;2022-12-31T07:40:10;15.70;98.00
4505;DHT22;2265;48.794;9.520;2022-12-31T07:43:02;15.70;98.00
4505;DHT22;2265;48.794;9.520;2022-12-31T07:45:35;15.80;98.00
4505;DHT22;2265;48.794;9.520;2022-12-31T07:48:17;15.80;98.00
4505;DHT22;2265;48.794;9.520;2022-12-31T07:50:47;15.80;98.00
4505;DHT22;2265;48.794;9.520;2022-12-31T07:53:15;15.90;98.00
4505;DHT22;2265;48.794;9.520;2022-12-31T07:55:42;15.80;98.00
4505;DHT22;2265;48.794;9.520;2022-12-31T07:58:17;15.80;98.00
4505;DHT22;2265;48.794;9.520;2022-12-31T08:00:46;15.80;98.00
4505;DHT22;2265;48.794;9.520;2022-12-31T08:03:25;15.80;98.00
4505;DHT22;2265;48.794;9.520;2022-12-31T08:06:06;15.80;98.00
4505;DHT22;2265;48.794;9.520;2022-12-31T08:08:43;15.80;98.00
4505;DHT22;2265;48.794;9.520;2022-12-31T08:11:17;15.80;98.00
4505;DHT22;2265;48.794;9.520;2022-12-31T08:13:54;15.80;98.00
4505;DHT22;2265;48.794;9.520;2022-12-31T08:16:22;15.90;98.00
4505;DHT22;2265;48.794;9.520;2022-12-31T08:18:51;15.90;98.00
4505;DHT22;2265;48.794;9.520;2022-12-31T08:21:31;16.00;98.00
4505;DHT22;2265;48.794;9.520;2022-12-31T08:24:07;16.00;98.00
4505;DHT22;2265;48.794;9.520;2022-12-31T08:26:46;16.00;98.00
4505;DHT22;2265;48.794;9.520;2022-12-31T08:29:29;16.10;98.00
4505;DHT22;2265;48.794;9.520;2022-12-31T08:32:06;16.10;98.00
4505;DHT22;2265;48.794;9.520;2022-12-31T08:34:43;16.20;98.00
4505;DHT22;2265;48.794;9.520;2022-12-31T08:37:16;16.30;98.00
4505;DHT22;2265;48.794;9.520;2022-12-31T08:39:55;16.30;98.00
4505;DHT22;2265;48.794;9.520;2022-12-31T08:42:34;16.40;98.00
4505;DHT22;2265;48.794;9.520;2022-12-31T08:45:11;16.40;98.00
4505;DHT22;2265;48.794;9.520;2022-12-31T08:47:46;16.40;98.00
4505;DHT22;2265;48.794;9.520;2022-12-31T08:50:19;16.40;98.00
4505;DHT22;2265;48.794;9.520;2022-12-31T08:52:47;16.50;98.00
4505;DHT22;2265;48.794;9.520;2022-12-31T08:55:15;16.50;98.00
4505;DHT22;2265;48.794;9.520;2022-12-31T08:57:50;16.60;98.00
4505;DHT22;2265;48.794;9.520;2022-12-31T09:00:20;16.60;98.00
4505;DHT22;2265;48.794;9.520;2022-12-31T09:05:49;16.60;98.00
4505;DHT22;2265;48.794;9.520;2022-12-31T09:08:24;16.60;98.00
4505;DHT22;2265;48.794;9.520;2022-12-31T09:10:58;16.60;98.00
4505;DHT22;2265;48.794;9.520;2022-12-31T09:13:34;16.70;98.00
4505;DHT22;2265;48.794;9.520;2022-12-31T09:16:10;16.60;98.00
4505;DHT22;2265;48.794;9.520;2022-12-31T09:18:43;16.70;98.00
4505;DHT22;2265;48.794;9.520;2022-12-31T09:21:14;16.70;98.00
4505;DHT22;2265;48.794;9.520;2022-12-31T09:23:42;16.80;98.00
4505;DHT22;2265;48.794;9.520;2022-12-31T09:26:19;16.80;98.00
4505;DHT22;2265;48.794;9.520;2022-12-31T09:28:55;16.90;98.00
4505;DHT22;2265;48.794;9.520;2022-12-31T09:31:30;16.90;98.00
4505;DHT22;2265;48.794;9.520;2022-12-31T09:34:07;17.00;98.00
4505;DHT22;2265;48.794;9.520;2022-12-31T09:36:42;17.10;98.00
4505;DHT22;2265;48.794;9.520;2022-12-31T09:39:15;17.10;98.00
4505;DHT22;2265;48.794;9.520;2022-12-31T09:48:03;17.20;98.00
4505;DHT22;2265;48.794;9.520;2022-12-31T09:50:49;17.30;98.00
4505;DHT22;2265;48.794;9.520;2022-12-31T09:56:42;17.40;98.00
4505;DHT22;2265;48.794;9.520;2022-12-31T09:59:20;17.50;98.00
4505;DHT22;2265;48.794;9.520;2022-12-31T10:01:54;17.50;98.00
4505;DHT22;2265;48.794;9.520;2022-12-31T10:04:41;17.50;98.00
4505;DHT22;2265;48.794;9.520;2022-12-31T10:07:35;17.50;98.00
4505;DHT22;2265;48.794;9.520;2022-12-31T10:10:14;17.60;98.00
4505;DHT22;2265;48.794;9.520;2022-12-31T10:15:49;17.70;98.00
4505;DHT22;2265;48.794;9.520;2022-12-31T10:18:36;17.80;98.00
4505;DHT22;2265;48.794;9.520;2022-12-31T10:21:20;17.80;98.00
4505;DHT22;2265;48.794;9.520;2022-12-31T10:27:08;18.00;98.00
4505;DHT22;2265;48.794;9.520;2022-12-31T10:29:45;18.00;98.00
4505;DHT22;2265;48.794;9.520;2022-12-31T10:32:43;18.10;98.00
4505;DHT22;2265;48.794;9.520;2022-12-31T10:35:22;18.20;98.00
4505;DHT22;2265;48.794;9.520;2022-12-31T10:38:14;18.20;98.00
4505;DHT22;2265;48.794;9.520;2022-12-31T10:41:28;18.20;98.00
4505;DHT22;2265;48.794;9.520;2022-12-31T10:50:38;18.40;98.00
4505;DHT22;2265;48.794;9.520;2022-12-31T10:53:47;18.40;98.00
4505;DHT22;2265;48.794;9.520;2022-12-31T10:56:50;18.40;98.00
4505;DHT22;2265;48.794;9.520;2022-12-31T11:05:58;18.60;98.00
4505;DHT22;2265;48.794;9.520;2022-12-31T11:08:49;18.60;98.00
4505;DHT22;2265;48.794;9.520;2022-12-31T11:11:30;18.70;98.00
4505;DHT22;2265;48.794;9.520;2022-12-31T11:14:24;18.90;98.00
4505;DHT22;2265;48.794;9.520;2022-12-31T11:20:26;19.10;98.00
4505;DHT22;2265;48.794;9.520;2022-12-31T11:23:07;19.20;98.00
4505;DHT22;2265;48.794;9.520;2022-12-31T11:25:49;19.30;98.00
4505;DHT22;2265;48.794;9.520;2022-12-31T11:28:41;19.30;98.00
4505;DHT22;2265;48.794;9.520;2022-12-31T11:31:22;19.40;98.00
4505;DHT22;2265;48.794;9.520;2022-12-31T11:34:07;19.40;98.00
4505;DHT22;2265;48.794;9.520;2022-12-31T11:36:46;19.40;98.00
4505;DHT22;2265;48.794;9.520;2022-12-31T11:39:33;19.50;98.00
4505;DHT22;2265;48.794;9.520;2022-12-31T11:42:11;19.50;98.00
4505;DHT22;2265;48.794;9.520;2022-12-31T11:44:45;19.60;98.00
4505;DHT22;2265;48.794;9.520;2022-12-31T11:47:51;19.60;98.00
4505;DHT22;2265;48.794;9.520;2022-12-31T11:50:27;19.50;98.00
4505;DHT22;2265;48.794;9.520;2022-12-31T11:55:58;19.40;98.00
4505;DHT22;2265;48.794;9.520;2022-12-31T11:58:27;19.50;98.00
4505;DHT22;2265;48.794;9.520;2022-12-31T12:00:58;19.60;98.00
4505;DHT22;2265;48.794;9.520;2022-12-31T12:03:25;19.70;98.00
4505;DHT22;2265;48.794;9.520;2022-12-31T12:05:53;19.70;98.00
4505;DHT22;2265;48.794;9.520;2022-12-31T12:08:23;19.70;98.00
4505;DHT22;2265;48.794;9.520;2022-12-31T12:10:53;19.70;98.00
4505;DHT22;2265;48.794;9.520;2022-12-31T12:13:24;19.70;98.00
4505;DHT22;2265;48.794;9.520;2022-12-31T12:15:53;19.70;98.00
4505;DHT22;2265;48.794;9.520;2022-12-31T12:18:27;19.80;98.00
4505;DHT22;2265;48.794;9.520;2022-12-31T12:21:09;19.80;98.00
4505;DHT22;2265;48.794;9.520;2022-12-31T12:23:54;19.90;98.00
4505;DHT22;2265;48.794;9.520;2022-12-31T12:26:32;20.00;98.00
4505;DHT22;2265;48.794;9.520;2022-12-31T12:29:08;20.20;98.00
4505;DHT22;2265;48.794;9.520;2022-12-31T12:31:36;20.40;98.00
4505;DHT22;2265;48.794;9.520;2022-12-31T12:34:04;20.60;98.00
4505;DHT22;2265;48.794;9.520;2022-12-31T12:36:33;20.70;98.00
4505;DHT22;2265;48.794;9.520;2022-12-31T12:39:04;20.80;98.00
4505;DHT22;2265;48.794;9.520;2022-12-31T12:41:33;20.80;98.00
4505;DHT22;2265;48.794;9.520;2022-12-31T12:44:05;20.80;98.00
4505;DHT22;2265;48.794;9.520;2022-12-31T12:46:37;20.70;98.00
4505;DHT22;2265;48.794;9.520;2022-12-31T12:49:05;20.70;98.00
4505;DHT22;2265;48.794;9.520;2022-12-31T12:51:42;20.50;98.00
4505;DHT22;2265;48.794;9.520;2022-12-31T12:54:25;20.40;98.00
4505;DHT22;2265;48.794;9.520;2022-12-31T12:56:59;20.40;98.00
4505;DHT22;2265;48.794;9.520;2022-12-31T12:59:55;20.40;98.00
4505;DHT22;2265;48.794;9.520;2022-12-31T13:02:43;20.40;98.00
4505;DHT22;2265;48.794;9.520;2022-12-31T13:05:23;20.50;98.00
4505;DHT22;2265;48.794;9.520;2022-12-31T13:08:01;20.50;98.00
4505;DHT22;2265;48.794;9.520;2022-12-31T13:10:47;20.50;98.00
4505;DHT22;2265;48.794;9.520;2022-12-31T13:13:24;20.40;98.00
4505;DHT22;2265;48.794;9.520;2022-12-31T13:15:59;20.40;98.00
4505;DHT22;2265;48.794;9.520;2022-12-31T13:18:44;20.30;98.00
4505;DHT22;2265;48.794;9.520;2022-12-31T13:21:32;20.30;98.00
4505;DHT22;2265;48.794;9.520;2022-12-31T13:24:10;20.20;98.00
4505;DHT22;2265;48.794;9.520;2022-12-31T13:26:43;20.10;98.00
4505;DHT22;2265;48.794;9.520;2022-12-31T13:29:16;20.00;98.00
4505;DHT22;2265;48.794;9.520;2022-12-31T13:31:46;20.00;98.00
4505;DHT22;2265;48.794;9.520;2022-12-31T13:34:17;20.00;98.00
4505;DHT22;2265;48.794;9.520;2022-12-31T13:36:47;19.90;98.00
4505;DHT22;2265;48.794;9.520;2022-12-31T13:39:19;19.90;98.00
4505;DHT22;2265;48.794;9.520;2022-12-31T13:41:54;19.80;98.00
4505;DHT22;2265;48.794;9.520;2022-12-31T13:44:28;19.80;98.00
4505;DHT22;2265;48.794;9.520;2022-12-31T13:47:01;19.70;98.00
4505;DHT22;2265;48.794;9.520;2022-12-31T13:49:32;19.60;98.00
4505;DHT22;2265;48.794;9.520;2022-12-31T13:52:16;19.60;98.00
4505;DHT22;2265;48.794;9.520;2022-12-31T13:54:51;19.60;98.00
4505;DHT22;2265;48.794;9.520;2022-12-31T13:57:29;19.50;98.00
4505;DHT22;2265;48.794;9.520;2022-12-31T14:00:02;19.50;98.00
4505;DHT22;2265;48.794;9.520;2022-12-31T14:02:35;19.40;98.00
4505;DHT22;2265;48.794;9.520;2022-12-31T14:05:13;19.40;98.00
4505;DHT22;2265;48.794;9.520;2022-12-31T14:07:46;19.30;98.00
4505;DHT22;2265;48.794;9.520;2022-12-31T14:10:19;19.20;98.00
4505;DHT22;2265;48.794;9.520;2022-12-31T14:12:55;19.10;98.00
4505;DHT22;2265;48.794;9.520;2022-12-31T14:15:28;19.00;98.00
4505;DHT22;2265;48.794;9.520;2022-12-31T14:18:02;18.90;98.00
4505;DHT22;2265;48.794;9.520;2022-12-31T14:20:41;18.70;98.00
4505;DHT22;2265;48.794;9.520;2022-12-31T14:23:21;18.60;98.00
4505;DHT22;2265;48.794;9.520;2022-12-31T14:25:53;18.50;98.00
4505;DHT22;2265;48.794;9.520;2022-12-31T14:28:26;18.40;98.00
4505;DHT22;2265;48.794;9.520;2022-12-31T14:30:59;18.40;98.00
4505;DHT22;2265;48.794;9.520;2022-12-31T14:33:38;18.30;98.00
4505;DHT22;2265;48.794;9.520;2022-12-31T14:36:15;18.20;98.00
4505;DHT22;2265;48.794;9.520;2022-12-31T14:39:00;18.10;98.00
4505;DHT22;2265;48.794;9.520;2022-12-31T14:41:42;18.00;98.00
4505;DHT22;2265;48.794;9.520;2022-12-31T14:44:25;18.00;98.00
4505;DHT22;2265;48.794;9.520;2022-12-31T14:47:02;17.90;98.00
4505;DHT22;2265;48.794;9.520;2022-12-31T14:49:40;17.80;98.00
4505;DHT22;2265;48.794;9.520;2022-12-31T14:52:20;17.80;98.00
4505;DHT22;2265;48.794;9.520;2022-12-31T14:54:57;17.70;98.00
4505;DHT22;2265;48.794;9.520;2022-12-31T14:57:32;17.60;98.00
4505;DHT22;2265;48.794;9.520;2022-12-31T15:00:22;17.50;98.00
4505;DHT22;2265;48.794;9.520;2022-12-31T15:02:52;17.40;98.00
4505;DHT22;2265;48.794;9.520;2022-12-31T15:05:22;17.40;98.00
4505;DHT22;2265;48.794;9.520;2022-12-31T15:08:10;17.20;98.00
4505;DHT22;2265;48.794;9.520;2022-12-31T15:10:46;17.10;98.00
4505;DHT22;2265;48.794;9.520;2022-12-31T15:13:24;17.00;98.00
4505;DHT22;2265;48.794;9.520;2022-12-31T15:16:21;16.90;98.00
4505;DHT22;2265;48.794;9.520;2022-12-31T15:21:55;16.60;98.00
4505;DHT22;2265;48.794;9.520;2022-12-31T15:24:26;16.50;98.00
4505;DHT22;2265;48.794;9.520;2022-12-31T15:26:57;16.50;98.00
4505;DHT22;2265;48.794;9.520;2022-12-31T15:29:29;16.50;98.00
4505;DHT22;2265;48.794;9.520;2022-12-31T15:32:02;16.40;98.00
4505;DHT22;2265;48.794;9.520;2022-12-31T15:34:31;16.40;98.00
4505;DHT22;2265;48.794;9.520;2022-12-31T15:37:01;16.40;98.00
4505;DHT22;2265;48.794;9.520;2022-12-31T15:39:40;16.20;98.00
4505;DHT22;2265;48.794;9.520;2022-12-31T15:42:39;16.20;98.00
4505;DHT22;2265;48.794;9.520;2022-12-31T15:45:15;16.00;98.00
4505;DHT22;2265;48.794;9.520;2022-12-31T15:47:47;16.00;98.00
4505;DHT22;2265;48.794;9.520;2022-12-31T15:50:19;15.90;98.00
4505;DHT22;2265;48.794;9.520;2022-12-31T15:52:51;16.00;98.00
4505;DHT22;2265;48.794;9.520;2022-12-31T15:55:24;16.20;98.00
4505;DHT22;2265;48.794;9.520;2022-12-31T15:57:55;16.60;98.00
4505;DHT22;2265;48.794;9.520;2022-12-31T16:00:41;16.80;98.00
4505;DHT22;2265;48.794;9.520;2022-12-31T16:03:20;16.70;98.00
4505;DHT22;2265;48.794;9.520;2022-12-31T16:05:48;16.40;98.00
4505;DHT22;2265;48.794;9.520;2022-12-31T16:08:19;16.30;98.00
4505;DHT22;2265;48.794;9.520;2022-12-31T16:10:47;16.00;98.00
4505;DHT22;2265;48.794;9.520;2022-12-31T16:13:20;15.90;98.00
4505;DHT22;2265;48.794;9.520;2022-12-31T16:15:49;15.70;98.00
4505;DHT22;2265;48.794;9.520;2022-12-31T16:18:18;15.60;98.00
4505;DHT22;2265;48.794;9.520;2022-12-31T16:20:46;15.60;98.00
4505;DHT22;2265;48.794;9.520;2022-12-31T16:23:20;15.70;98.00
4505;DHT22;2265;48.794;9.520;2022-12-31T16:25:48;15.40;98.00
4505;DHT22;2265;48.794;9.520;2022-12-31T16:28:18;15.30;98.00
4505;DHT22;2265;48.794;9.520;2022-12-31T16:30:56;15.10;98.00
4505;DHT22;2265;48.794;9.520;2022-12-31T16:33:26;15.00;98.00
4505;DHT22;2265;48.794;9.520;2022-12-31T16:35:55;15.10;98.00
4505;DHT22;2265;48.794;9.520;2022-12-31T16:38:30;14.90;98.00
4505;DHT22;2265;48.794;9.520;2022-12-31T16:41:07;14.80;98.00
4505;DHT22;2265;48.794;9.520;2022-12-31T16:43:40;14.60;98.00
4505;DHT22;2265;48.794;9.520;2022-12-31T16:46:10;14.50;98.00
4505;DHT22;2265;48.794;9.520;2022-12-31T16:48:46;14.50;98.00
4505;DHT22;2265;48.794;9.520;2022-12-31T16:51:17;14.50;98.00
4505;DHT22;2265;48.794;9.520;2022-12-31T16:53:45;14.60;98.00
4505;DHT22;2265;48.794;9.520;2022-12-31T16:56:21;14.60;98.00
4505;DHT22;2265;48.794;9.520;2022-12-31T16:58:52;14.50;98.00
4505;DHT22;2265;48.794;9.520;2022-12-31T17:01:24;14.40;98.00
4505;DHT22;2265;48.794;9.520;2022-12-31T17:03:58;14.30;98.00
4505;DHT22;2265;48.794;9.520;2022-12-31T17:06:27;14.30;98.00
4505;DHT22;2265;48.794;9.520;2022-12-31T17:09:07;14.10;98.00
4505;DHT22;2265;48.794;9.520;2022-12-31T17:11:42;13.90;98.00
4505;DHT22;2265;48.794;9.520;2022-12-31T17:14:13;13.90;98.00
4505;DHT22;2265;48.794;9.520;2022-12-31T17:16:51;13.80;98.00
4505;DHT22;2265;48.794;9.520;2022-12-31T17:19:32;13.90;98.00
4505;DHT22;2265;48.794;9.520;2022-12-31T17:22:00;13.80;98.00
4505;DHT22;2265;48.794;9.520;2022-12-31T17:24:30;13.80;98.00
4505;DHT22;2265;48.794;9.520;2022-12-31T17:27:03;13.80;98.00
4505;DHT22;2265;48.794;9.520;2022-12-31T17:29:32;13.70;98.00
4505;DHT22;2265;48.794;9.520;2022-12-31T17:32:01;13.50;98.00
4505;DHT22;2265;48.794;9.520;2022-12-31T17:34:35;13.30;98.00